sensor_id;sensor_type;location;lat;lon;timestamp;P1;durP1;ratioP1;P2;durP2;ratioP2
19543;SDS011;9917;51.256;7.152;2023-03-29T00:00:49;4.13;;;2.57;;
19543;SDS011;9917;51.256;7.152;2023-03-29T00:03:15;4.13;;;2.60;;
19543;SDS011;9917;51.256;7.152;2023-03-29T00:05:41;4.80;;;2.83;;
19543;SDS011;9917;51.256;7.152;2023-03-29T00:08:07;6.50;;;2.97;;
19543;SDS011;9917;51.256;7.152;2023-03-29T00:10:33;4.47;;;2.50;;
19543;SDS011;9917;51.256;7.152;2023-03-29T00:13:00;8.13;;;2.73;;
19543;SDS011;9917;51.256;7.152;2023-03-29T00:15:26;5.50;;;2.90;;
19543;SDS011;9917;51.256;7.152;2023-03-29T00:17:52;4.37;;;3.00;;
19543;SDS011;9917;51.256;7.152;2023-03-29T00:20:18;6.77;;;3.10;;
19543;SDS011;9917;51.256;7.152;2023-03-29T00:22:44;6.50;;;3.03;;
19543;SDS011;9917;51.256;7.152;2023-03-29T00:25:10;7.17;;;4.20;;
19543;SDS011;9917;51.256;7.152;2023-03-29T00:27:36;5.00;;;3.07;;
19543;SDS011;9917;51.256;7.152;2023-03-29T00:30:05;4.47;;;2.93;;
19543;SDS011;9917;51.256;7.152;2023-03-29T00:32:32;3.80;;;2.60;;
19543;SDS011;9917;51.256;7.152;2023-03-29T00:34:58;5.73;;;2.97;;
19543;SDS011;9917;51.256;7.152;2023-03-29T00:37:24;4.07;;;2.67;;
19543;SDS011;9917;51.256;7.152;2023-03-29T00:39:50;6.47;;;3.53;;
19543;SDS011;9917;51.256;7.152;2023-03-29T00:42:15;4.83;;;3.10;;
19543;SDS011;9917;51.256;7.152;2023-03-29T00:44:58;4.73;;;3.03;;
19543;SDS011;9917;51.256;7.152;2023-03-29T00:47:29;6.50;;;3.13;;
19543;SDS011;9917;51.256;7.152;2023-03-29T00:50:00;5.87;;;3.20;;
19543;SDS011;9917;51.256;7.152;2023-03-29T00:52:29;4.87;;;3.33;;
19543;SDS011;9917;51.256;7.152;2023-03-29T00:54:56;4.30;;;2.73;;
19543;SDS011;9917;51.256;7.152;2023-03-29T00:57:23;4.17;;;2.70;;
19543;SDS011;9917;51.256;7.152;2023-03-29T00:59:51;4.87;;;2.50;;
19543;SDS011;9917;51.256;7.152;2023-03-29T01:02:20;3.90;;;2.43;;
19543;SDS011;9917;51.256;7.152;2023-03-29T01:04:49;4.37;;;2.60;;
19543;SDS011;9917;51.256;7.152;2023-03-29T01:07:21;3.70;;;2.73;;
19543;SDS011;9917;51.256;7.152;2023-03-29T01:09:51;3.27;;;2.17;;
19543;SDS011;9917;51.256;7.152;2023-03-29T01:12:20;4.37;;;2.40;;
19543;SDS011;9917;51.256;7.152;2023-03-29T01:14:50;6.13;;;2.80;;
19543;SDS011;9917;51.256;7.152;2023-03-29T01:17:18;4.50;;;2.57;;
19543;SDS011;9917;51.256;7.152;2023-03-29T01:19:44;4.53;;;2.53;;
19543;SDS011;9917;51.256;7.152;2023-03-29T01:22:17;4.07;;;2.50;;
19543;SDS011;9917;51.256;7.152;2023-03-29T01:24:54;3.83;;;2.40;;
19543;SDS011;9917;51.256;7.152;2023-03-29T01:27:44;4.07;;;2.60;;
19543;SDS011;9917;51.256;7.152;2023-03-29T01:30:18;3.83;;;2.53;;
19543;SDS011;9917;51.256;7.152;2023-03-29T01:32:49;4.93;;;2.50;;
19543;SDS011;9917;51.256;7.152;2023-03-29T01:35:21;5.23;;;2.53;;
19543;SDS011;9917;51.256;7.152;2023-03-29T01:37:51;5.80;;;2.47;;
19543;SDS011;9917;51.256;7.152;2023-03-29T01:40:22;3.70;;;2.20;;
19543;SDS011;9917;51.256;7.152;2023-03-29T01:42:51;4.33;;;2.33;;
19543;SDS011;9917;51.256;7.152;2023-03-29T01:45:23;4.53;;;2.40;;
19543;SDS011;9917;51.256;7.152;2023-03-29T01:47:53;2.93;;;2.07;;
19543;SDS011;9917;51.256;7.152;2023-03-29T01:50:25;3.37;;;2.40;;
19543;SDS011;9917;51.256;7.152;2023-03-29T01:53:00;4.53;;;2.50;;
19543;SDS011;9917;51.256;7.152;2023-03-29T01:55:31;6.13;;;2.50;;
19543;SDS011;9917;51.256;7.152;2023-03-29T01:58:00;4.57;;;2.40;;
19543;SDS011;9917;51.256;7.152;2023-03-29T02:00:28;4.37;;;2.30;;
19543;SDS011;9917;51.256;7.152;2023-03-29T02:02:55;3.13;;;2.30;;
19543;SDS011;9917;51.256;7.152;2023-03-29T02:05:24;5.40;;;2.50;;
19543;SDS011;9917;51.256;7.152;2023-03-29T02:07:52;5.33;;;2.73;;
19543;SDS011;9917;51.256;7.152;2023-03-29T02:10:19;4.20;;;2.13;;
19543;SDS011;9917;51.256;7.152;2023-03-29T02:12:47;3.73;;;2.20;;
19543;SDS011;9917;51.256;7.152;2023-03-29T02:15:15;3.67;;;2.20;;
19543;SDS011;9917;51.256;7.152;2023-03-29T02:17:42;4.57;;;2.70;;
19543;SDS011;9917;51.256;7.152;2023-03-29T02:20:08;5.50;;;2.33;;
19543;SDS011;9917;51.256;7.152;2023-03-29T02:22:37;5.50;;;2.90;;
19543;SDS011;9917;51.256;7.152;2023-03-29T02:25:08;5.23;;;2.43;;
19543;SDS011;9917;51.256;7.152;2023-03-29T02:27:34;4.83;;;2.53;;
19543;SDS011;9917;51.256;7.152;2023-03-29T02:30:00;3.57;;;2.20;;
19543;SDS011;9917;51.256;7.152;2023-03-29T02:32:29;3.30;;;2.30;;
19543;SDS011;9917;51.256;7.152;2023-03-29T02:35:03;7.03;;;2.90;;
19543;SDS011;9917;51.256;7.152;2023-03-29T02:37:33;6.20;;;2.40;;
19543;SDS011;9917;51.256;7.152;2023-03-29T02:40:01;3.97;;;2.20;;
19543;SDS011;9917;51.256;7.152;2023-03-29T02:42:27;3.33;;;2.60;;
19543;SDS011;9917;51.256;7.152;2023-03-29T02:44:54;3.90;;;2.70;;
19543;SDS011;9917;51.256;7.152;2023-03-29T02:47:24;3.80;;;2.30;;
19543;SDS011;9917;51.256;7.152;2023-03-29T02:49:55;6.30;;;2.30;;
19543;SDS011;9917;51.256;7.152;2023-03-29T02:52:22;4.80;;;2.10;;
19543;SDS011;9917;51.256;7.152;2023-03-29T02:54:52;4.63;;;2.47;;
19543;SDS011;9917;51.256;7.152;2023-03-29T02:57:20;3.30;;;2.37;;
19543;SDS011;9917;51.256;7.152;2023-03-29T02:59:46;6.40;;;2.20;;
19543;SDS011;9917;51.256;7.152;2023-03-29T03:02:12;4.67;;;2.43;;
19543;SDS011;9917;51.256;7.152;2023-03-29T03:04:37;4.47;;;2.20;;
19543;SDS011;9917;51.256;7.152;2023-03-29T03:07:04;4.33;;;2.70;;
19543;SDS011;9917;51.256;7.152;2023-03-29T03:09:30;5.07;;;2.53;;
19543;SDS011;9917;51.256;7.152;2023-03-29T03:11:56;4.13;;;2.20;;
19543;SDS011;9917;51.256;7.152;2023-03-29T03:14:22;4.87;;;2.43;;
19543;SDS011;9917;51.256;7.152;2023-03-29T03:16:47;4.87;;;2.77;;
19543;SDS011;9917;51.256;7.152;2023-03-29T03:19:13;6.17;;;2.47;;
19543;SDS011;9917;51.256;7.152;2023-03-29T03:21:39;4.90;;;2.43;;
19543;SDS011;9917;51.256;7.152;2023-03-29T03:24:06;6.77;;;2.70;;
19543;SDS011;9917;51.256;7.152;2023-03-29T03:26:32;3.13;;;2.20;;
19543;SDS011;9917;51.256;7.152;2023-03-29T03:28:58;4.23;;;2.37;;
19543;SDS011;9917;51.256;7.152;2023-03-29T03:31:24;3.43;;;2.43;;
19543;SDS011;9917;51.256;7.152;2023-03-29T03:33:50;4.50;;;2.40;;
19543;SDS011;9917;51.256;7.152;2023-03-29T03:36:16;2.80;;;2.10;;
19543;SDS011;9917;51.256;7.152;2023-03-29T03:38:41;5.93;;;2.57;;
19543;SDS011;9917;51.256;7.152;2023-03-29T03:41:08;6.50;;;2.60;;
19543;SDS011;9917;51.256;7.152;2023-03-29T03:43:34;3.10;;;2.33;;
19543;SDS011;9917;51.256;7.152;2023-03-29T03:46:00;3.50;;;2.50;;
19543;SDS011;9917;51.256;7.152;2023-03-29T03:48:26;4.47;;;2.40;;
19543;SDS011;9917;51.256;7.152;2023-03-29T03:50:52;5.27;;;2.97;;
19543;SDS011;9917;51.256;7.152;2023-03-29T03:53:19;7.03;;;2.37;;
19543;SDS011;9917;51.256;7.152;2023-03-29T03:55:46;4.57;;;2.30;;
19543;SDS011;9917;51.256;7.152;2023-03-29T03:58:13;4.40;;;2.57;;
19543;SDS011;9917;51.256;7.152;2023-03-29T04:00:39;4.17;;;2.50;;
19543;SDS011;9917;51.256;7.152;2023-03-29T04:03:05;3.37;;;2.30;;
19543;SDS011;9917;51.256;7.152;2023-03-29T04:05:31;5.03;;;2.77;;
19543;SDS011;9917;51.256;7.152;2023-03-29T04:07:56;4.33;;;2.60;;
19543;SDS011;9917;51.256;7.152;2023-03-29T04:10:22;4.63;;;2.27;;
19543;SDS011;9917;51.256;7.152;2023-03-29T04:12:48;4.77;;;2.43;;
19543;SDS011;9917;51.256;7.152;2023-03-29T04:15:15;5.73;;;2.73;;
19543;SDS011;9917;51.256;7.152;2023-03-29T04:17:41;5.23;;;2.63;;
19543;SDS011;9917;51.256;7.152;2023-03-29T04:20:07;10.83;;;3.00;;
19543;SDS011;9917;51.256;7.152;2023-03-29T04:22:34;4.00;;;2.73;;
19543;SDS011;9917;51.256;7.152;2023-03-29T04:24:59;5.03;;;2.77;;
19543;SDS011;9917;51.256;7.152;2023-03-29T04:27:25;5.73;;;2.47;;
19543;SDS011;9917;51.256;7.152;2023-03-29T04:29:51;3.60;;;2.27;;
19543;SDS011;9917;51.256;7.152;2023-03-29T04:32:18;6.40;;;2.70;;
19543;SDS011;9917;51.256;7.152;2023-03-29T04:34:43;7.10;;;2.67;;
19543;SDS011;9917;51.256;7.152;2023-03-29T04:37:09;4.00;;;2.03;;
19543;SDS011;9917;51.256;7.152;2023-03-29T04:39:35;4.70;;;2.73;;
19543;SDS011;9917;51.256;7.152;2023-03-29T04:42:01;4.03;;;2.83;;
19543;SDS011;9917;51.256;7.152;2023-03-29T04:44:27;5.63;;;2.53;;
19543;SDS011;9917;51.256;7.152;2023-03-29T04:46:52;5.07;;;2.83;;
19543;SDS011;9917;51.256;7.152;2023-03-29T04:49:20;3.67;;;2.27;;
19543;SDS011;9917;51.256;7.152;2023-03-29T04:51:45;6.53;;;2.80;;
19543;SDS011;9917;51.256;7.152;2023-03-29T04:54:11;5.93;;;2.83;;
19543;SDS011;9917;51.256;7.152;2023-03-29T04:56:37;5.43;;;2.90;;
19543;SDS011;9917;51.256;7.152;2023-03-29T04:59:03;4.43;;;2.83;;
19543;SDS011;9917;51.256;7.152;2023-03-29T05:01:29;4.37;;;2.87;;
19543;SDS011;9917;51.256;7.152;2023-03-29T05:03:54;6.07;;;2.90;;
19543;SDS011;9917;51.256;7.152;2023-03-29T05:06:21;6.87;;;3.60;;
19543;SDS011;9917;51.256;7.152;2023-03-29T05:08:47;5.60;;;3.20;;
19543;SDS011;9917;51.256;7.152;2023-03-29T05:11:13;6.33;;;3.30;;
19543;SDS011;9917;51.256;7.152;2023-03-29T05:13:38;4.97;;;3.23;;
19543;SDS011;9917;51.256;7.152;2023-03-29T05:16:05;8.93;;;3.70;;
19543;SDS011;9917;51.256;7.152;2023-03-29T05:18:31;4.93;;;3.50;;
19543;SDS011;9917;51.256;7.152;2023-03-29T05:20:57;6.47;;;3.40;;
19543;SDS011;9917;51.256;7.152;2023-03-29T05:23:25;4.97;;;3.37;;
19543;SDS011;9917;51.256;7.152;2023-03-29T05:25:52;5.90;;;3.20;;
19543;SDS011;9917;51.256;7.152;2023-03-29T05:28:17;7.20;;;4.00;;
19543;SDS011;9917;51.256;7.152;2023-03-29T05:30:43;9.03;;;3.43;;
19543;SDS011;9917;51.256;7.152;2023-03-29T05:33:09;6.57;;;3.93;;
19543;SDS011;9917;51.256;7.152;2023-03-29T05:35:35;5.77;;;3.43;;
19543;SDS011;9917;51.256;7.152;2023-03-29T05:38:01;5.73;;;3.30;;
19543;SDS011;9917;51.256;7.152;2023-03-29T05:40:29;5.60;;;3.23;;
19543;SDS011;9917;51.256;7.152;2023-03-29T05:42:55;5.73;;;3.30;;
19543;SDS011;9917;51.256;7.152;2023-03-29T05:45:20;5.83;;;3.87;;
19543;SDS011;9917;51.256;7.152;2023-03-29T05:47:46;5.37;;;3.43;;
19543;SDS011;9917;51.256;7.152;2023-03-29T05:50:12;5.07;;;3.10;;
19543;SDS011;9917;51.256;7.152;2023-03-29T05:52:37;5.30;;;3.40;;
19543;SDS011;9917;51.256;7.152;2023-03-29T05:55:04;6.47;;;3.87;;
19543;SDS011;9917;51.256;7.152;2023-03-29T05:57:33;9.57;;;3.43;;
19543;SDS011;9917;51.256;7.152;2023-03-29T05:59:59;7.93;;;4.07;;
19543;SDS011;9917;51.256;7.152;2023-03-29T06:02:25;7.73;;;3.30;;
19543;SDS011;9917;51.256;7.152;2023-03-29T06:04:51;5.87;;;3.90;;
19543;SDS011;9917;51.256;7.152;2023-03-29T06:07:16;8.03;;;4.00;;
19543;SDS011;9917;51.256;7.152;2023-03-29T06:09:42;5.97;;;3.07;;
19543;SDS011;9917;51.256;7.152;2023-03-29T06:12:08;6.20;;;3.70;;
19543;SDS011;9917;51.256;7.152;2023-03-29T06:14:35;5.57;;;3.57;;
19543;SDS011;9917;51.256;7.152;2023-03-29T06:17:00;6.40;;;3.27;;
19543;SDS011;9917;51.256;7.152;2023-03-29T06:19:26;7.83;;;4.20;;
19543;SDS011;9917;51.256;7.152;2023-03-29T06:21:52;4.10;;;3.20;;
19543;SDS011;9917;51.256;7.152;2023-03-29T06:24:18;7.07;;;3.60;;
19543;SDS011;9917;51.256;7.152;2023-03-29T06:26:44;6.47;;;3.47;;
19543;SDS011;9917;51.256;7.152;2023-03-29T06:29:10;8.37;;;3.23;;
19543;SDS011;9917;51.256;7.152;2023-03-29T06:31:37;5.97;;;3.30;;
19543;SDS011;9917;51.256;7.152;2023-03-29T06:34:02;5.43;;;3.63;;
19543;SDS011;9917;51.256;7.152;2023-03-29T06:36:28;9.73;;;3.70;;
19543;SDS011;9917;51.256;7.152;2023-03-29T06:38:54;7.07;;;3.27;;
19543;SDS011;9917;51.256;7.152;2023-03-29T06:41:20;6.43;;;3.43;;
19543;SDS011;9917;51.256;7.152;2023-03-29T06:43:46;5.03;;;3.30;;
19543;SDS011;9917;51.256;7.152;2023-03-29T06:46:11;6.07;;;2.90;;
19543;SDS011;9917;51.256;7.152;2023-03-29T06:48:39;10.57;;;3.80;;
19543;SDS011;9917;51.256;7.152;2023-03-29T06:51:05;11.77;;;3.23;;
19543;SDS011;9917;51.256;7.152;2023-03-29T06:53:31;5.83;;;3.00;;
19543;SDS011;9917;51.256;7.152;2023-03-29T06:55:56;4.77;;;3.37;;
19543;SDS011;9917;51.256;7.152;2023-03-29T06:58:22;6.40;;;3.53;;
19543;SDS011;9917;51.256;7.152;2023-03-29T07:00:48;8.70;;;3.60;;
19543;SDS011;9917;51.256;7.152;2023-03-29T07:03:13;8.77;;;3.37;;
19543;SDS011;9917;51.256;7.152;2023-03-29T07:05:41;8.97;;;3.50;;
19543;SDS011;9917;51.256;7.152;2023-03-29T07:08:06;7.37;;;3.47;;
19543;SDS011;9917;51.256;7.152;2023-03-29T07:10:34;22.27;;;4.03;;
19543;SDS011;9917;51.256;7.152;2023-03-29T07:13:05;6.63;;;3.00;;
19543;SDS011;9917;51.256;7.152;2023-03-29T07:15:38;9.70;;;3.63;;
19543;SDS011;9917;51.256;7.152;2023-03-29T07:18:14;5.50;;;2.63;;
19543;SDS011;9917;51.256;7.152;2023-03-29T07:20:54;5.00;;;2.73;;
19543;SDS011;9917;51.256;7.152;2023-03-29T07:23:23;6.87;;;3.07;;
19543;SDS011;9917;51.256;7.152;2023-03-29T07:25:55;8.20;;;2.87;;
19543;SDS011;9917;51.256;7.152;2023-03-29T07:28:22;5.33;;;2.90;;
19543;SDS011;9917;51.256;7.152;2023-03-29T07:30:50;4.40;;;2.57;;
19543;SDS011;9917;51.256;7.152;2023-03-29T07:33:27;6.17;;;3.17;;
19543;SDS011;9917;51.256;7.152;2023-03-29T07:36:03;5.90;;;2.70;;
19543;SDS011;9917;51.256;7.152;2023-03-29T07:38:33;4.17;;;2.70;;
19543;SDS011;9917;51.256;7.152;2023-03-29T07:41:01;5.20;;;2.87;;
19543;SDS011;9917;51.256;7.152;2023-03-29T07:43:39;3.93;;;2.60;;
19543;SDS011;9917;51.256;7.152;2023-03-29T07:46:10;4.67;;;2.80;;
19543;SDS011;9917;51.256;7.152;2023-03-29T07:48:44;5.17;;;2.83;;
19543;SDS011;9917;51.256;7.152;2023-03-29T07:51:30;6.47;;;3.10;;
19543;SDS011;9917;51.256;7.152;2023-03-29T07:56:56;5.57;;;3.00;;
19543;SDS011;9917;51.256;7.152;2023-03-29T08:00:13;4.67;;;2.70;;
19543;SDS011;9917;51.256;7.152;2023-03-29T08:02:22;8.77;;;3.10;;
19543;SDS011;9917;51.256;7.152;2023-03-29T08:04:49;4.47;;;2.53;;
19543;SDS011;9917;51.256;7.152;2023-03-29T08:07:25;5.90;;;2.30;;
19543;SDS011;9917;51.256;7.152;2023-03-29T08:09:59;7.60;;;3.30;;
19543;SDS011;9917;51.256;7.152;2023-03-29T08:12:31;5.63;;;2.20;;
19543;SDS011;9917;51.256;7.152;2023-03-29T08:14:59;4.77;;;2.50;;
19543;SDS011;9917;51.256;7.152;2023-03-29T08:17:30;5.30;;;2.33;;
19543;SDS011;9917;51.256;7.152;2023-03-29T08:19:57;3.83;;;2.63;;
19543;SDS011;9917;51.256;7.152;2023-03-29T08:22:26;4.73;;;2.50;;
19543;SDS011;9917;51.256;7.152;2023-03-29T08:25:03;5.43;;;2.57;;
19543;SDS011;9917;51.256;7.152;2023-03-29T08:27:35;5.20;;;3.00;;
19543;SDS011;9917;51.256;7.152;2023-03-29T08:30:11;4.30;;;2.57;;
19543;SDS011;9917;51.256;7.152;2023-03-29T08:32:40;5.70;;;2.80;;
19543;SDS011;9917;51.256;7.152;2023-03-29T08:35:09;8.97;;;2.50;;
19543;SDS011;9917;51.256;7.152;2023-03-29T08:37:48;4.07;;;2.67;;
19543;SDS011;9917;51.256;7.152;2023-03-29T08:40:22;6.20;;;2.80;;
19543;SDS011;9917;51.256;7.152;2023-03-29T08:43:10;5.47;;;2.77;;
19543;SDS011;9917;51.256;7.152;2023-03-29T08:45:58;3.70;;;2.60;;
19543;SDS011;9917;51.256;7.152;2023-03-29T08:48:42;6.77;;;2.80;;
19543;SDS011;9917;51.256;7.152;2023-03-29T08:51:16;4.27;;;2.80;;
19543;SDS011;9917;51.256;7.152;2023-03-29T08:53:50;5.37;;;2.43;;
19543;SDS011;9917;51.256;7.152;2023-03-29T08:56:29;6.47;;;2.43;;
19543;SDS011;9917;51.256;7.152;2023-03-29T08:59:02;4.73;;;2.43;;
19543;SDS011;9917;51.256;7.152;2023-03-29T09:01:30;5.73;;;2.90;;
19543;SDS011;9917;51.256;7.152;2023-03-29T09:04:22;8.60;;;2.57;;
19543;SDS011;9917;51.256;7.152;2023-03-29T09:08:18;5.77;;;3.37;;
19543;SDS011;9917;51.256;7.152;2023-03-29T09:13:33;4.43;;;2.50;;
19543;SDS011;9917;51.256;7.152;2023-03-29T09:16:32;4.73;;;2.53;;
19543;SDS011;9917;51.256;7.152;2023-03-29T09:19:18;5.60;;;2.80;;
19543;SDS011;9917;51.256;7.152;2023-03-29T09:22:01;6.00;;;2.53;;
19543;SDS011;9917;51.256;7.152;2023-03-29T09:24:42;3.60;;;2.60;;
19543;SDS011;9917;51.256;7.152;2023-03-29T09:27:23;8.80;;;2.70;;
19543;SDS011;9917;51.256;7.152;2023-03-29T09:30:08;5.23;;;2.40;;
19543;SDS011;9917;51.256;7.152;2023-03-29T09:32:52;6.83;;;2.43;;
19543;SDS011;9917;51.256;7.152;2023-03-29T09:35:30;5.87;;;2.60;;
19543;SDS011;9917;51.256;7.152;2023-03-29T09:38:11;6.97;;;2.97;;
19543;SDS011;9917;51.256;7.152;2023-03-29T09:40:50;5.97;;;3.00;;
19543;SDS011;9917;51.256;7.152;2023-03-29T09:46:43;4.20;;;2.80;;
19543;SDS011;9917;51.256;7.152;2023-03-29T09:49:22;7.93;;;2.70;;
19543;SDS011;9917;51.256;7.152;2023-03-29T09:52:02;6.97;;;2.73;;
19543;SDS011;9917;51.256;7.152;2023-03-29T09:54:35;5.90;;;2.77;;
19543;SDS011;9917;51.256;7.152;2023-03-29T09:57:16;6.10;;;2.63;;
19543;SDS011;9917;51.256;7.152;2023-03-29T09:59:44;7.73;;;2.97;;
19543;SDS011;9917;51.256;7.152;2023-03-29T10:02:17;4.53;;;2.57;;
19543;SDS011;9917;51.256;7.152;2023-03-29T10:04:53;6.33;;;2.43;;
19543;SDS011;9917;51.256;7.152;2023-03-29T10:10:32;15.83;;;3.80;;
19543;SDS011;9917;51.256;7.152;2023-03-29T10:13:01;7.80;;;3.30;;
19543;SDS011;9917;51.256;7.152;2023-03-29T10:15:41;7.10;;;2.70;;
19543;SDS011;9917;51.256;7.152;2023-03-29T10:18:25;4.93;;;2.40;;
19543;SDS011;9917;51.256;7.152;2023-03-29T10:21:02;3.67;;;2.30;;
19543;SDS011;9917;51.256;7.152;2023-03-29T10:23:51;4.47;;;2.60;;
19543;SDS011;9917;51.256;7.152;2023-03-29T10:29:34;4.97;;;2.40;;
19543;SDS011;9917;51.256;7.152;2023-03-29T10:32:21;4.67;;;2.57;;
19543;SDS011;9917;51.256;7.152;2023-03-29T10:34:54;6.03;;;2.40;;
19543;SDS011;9917;51.256;7.152;2023-03-29T10:37:31;4.47;;;2.95;;
19543;SDS011;9917;51.256;7.152;2023-03-29T10:40:15;4.80;;;2.40;;
19543;SDS011;9917;51.256;7.152;2023-03-29T10:42:53;5.55;;;2.60;;
19543;SDS011;9917;51.256;7.152;2023-03-29T10:45:38;12.18;;;4.90;;
19543;SDS011;9917;51.256;7.152;2023-03-29T10:48:12;9.18;;;4.38;;
19543;SDS011;9917;51.256;7.152;2023-03-29T10:51:02;7.32;;;2.50;;
19543;SDS011;9917;51.256;7.152;2023-03-29T10:53:41;6.57;;;2.58;;
19543;SDS011;9917;51.256;7.152;2023-03-29T10:56:34;5.72;;;2.75;;
19543;SDS011;9917;51.256;7.152;2023-03-29T11:02:10;6.47;;;2.43;;
19543;SDS011;9917;51.256;7.152;2023-03-29T11:05:10;4.90;;;2.13;;
19543;SDS011;9917;51.256;7.152;2023-03-29T11:10:55;3.97;;;2.45;;
19543;SDS011;9917;51.256;7.152;2023-03-29T11:13:40;5.30;;;1.98;;
19543;SDS011;9917;51.256;7.152;2023-03-29T11:22:21;7.70;;;3.70;;
19543;SDS011;9917;51.256;7.152;2023-03-29T11:25:11;7.47;;;2.05;;
19543;SDS011;9917;51.256;7.152;2023-03-29T11:27:57;5.72;;;1.85;;
19543;SDS011;9917;51.256;7.152;2023-03-29T11:30:31;7.93;;;2.50;;
19543;SDS011;9917;51.256;7.152;2023-03-29T11:33:29;12.32;;;2.45;;
19543;SDS011;9917;51.256;7.152;2023-03-29T11:36:11;5.63;;;2.13;;
19543;SDS011;9917;51.256;7.152;2023-03-29T11:38:47;4.05;;;2.10;;
19543;SDS011;9917;51.256;7.152;2023-03-29T11:41:21;5.63;;;2.38;;
19543;SDS011;9917;51.256;7.152;2023-03-29T11:44:01;5.70;;;2.15;;
19543;SDS011;9917;51.256;7.152;2023-03-29T11:46:39;5.00;;;2.05;;
19543;SDS011;9917;51.256;7.152;2023-03-29T11:49:11;6.00;;;2.95;;
19543;SDS011;9917;51.256;7.152;2023-03-29T11:51:43;4.22;;;1.80;;
19543;SDS011;9917;51.256;7.152;2023-03-29T11:54:16;11.35;;;4.63;;
19543;SDS011;9917;51.256;7.152;2023-03-29T11:56:47;3.65;;;1.90;;
19543;SDS011;9917;51.256;7.152;2023-03-29T11:59:34;3.30;;;1.60;;
19543;SDS011;9917;51.256;7.152;2023-03-29T12:02:20;7.60;;;2.38;;
19543;SDS011;9917;51.256;7.152;2023-03-29T12:04:51;4.68;;;1.63;;
19543;SDS011;9917;51.256;7.152;2023-03-29T12:07:34;5.10;;;1.65;;
19543;SDS011;9917;51.256;7.152;2023-03-29T12:10:15;6.55;;;2.20;;
19543;SDS011;9917;51.256;7.152;2023-03-29T12:12:47;5.78;;;2.42;;
19543;SDS011;9917;51.256;7.152;2023-03-29T12:15:28;5.20;;;1.88;;
19543;SDS011;9917;51.256;7.152;2023-03-29T12:18:11;5.53;;;2.03;;
19543;SDS011;9917;51.256;7.152;2023-03-29T12:33:21;2.35;;;1.90;;
19543;SDS011;9917;51.256;7.152;2023-03-29T12:36:08;4.88;;;2.33;;
19543;SDS011;9917;51.256;7.152;2023-03-29T12:38:52;6.07;;;2.80;;
19543;SDS011;9917;51.256;7.152;2023-03-29T12:41:34;3.80;;;2.33;;
19543;SDS011;9917;51.256;7.152;2023-03-29T12:44:34;6.30;;;2.53;;
19543;SDS011;9917;51.256;7.152;2023-03-29T12:50:40;4.85;;;2.42;;
19543;SDS011;9917;51.256;7.152;2023-03-29T12:54:04;6.13;;;2.42;;
19543;SDS011;9917;51.256;7.152;2023-03-29T13:00:11;5.88;;;2.60;;
19543;SDS011;9917;51.256;7.152;2023-03-29T13:09:23;6.28;;;3.47;;
19543;SDS011;9917;51.256;7.152;2023-03-29T13:11:56;7.00;;;2.72;;
19543;SDS011;9917;51.256;7.152;2023-03-29T13:14:33;5.65;;;2.70;;
19543;SDS011;9917;51.256;7.152;2023-03-29T13:17:21;6.13;;;2.85;;
19543;SDS011;9917;51.256;7.152;2023-03-29T13:23:47;9.57;;;3.85;;
19543;SDS011;9917;51.256;7.152;2023-03-29T13:27:16;4.20;;;2.40;;
19543;SDS011;9917;51.256;7.152;2023-03-29T13:39:12;6.32;;;3.00;;
19543;SDS011;9917;51.256;7.152;2023-03-29T13:42:16;4.43;;;2.13;;
19543;SDS011;9917;51.256;7.152;2023-03-29T13:44:45;4.25;;;2.13;;
19543;SDS011;9917;51.256;7.152;2023-03-29T13:47:13;4.63;;;2.45;;
19543;SDS011;9917;51.256;7.152;2023-03-29T13:49:53;4.70;;;2.28;;
19543;SDS011;9917;51.256;7.152;2023-03-29T13:52:22;6.63;;;2.38;;
19543;SDS011;9917;51.256;7.152;2023-03-29T13:54:56;5.93;;;2.70;;
19543;SDS011;9917;51.256;7.152;2023-03-29T13:57:29;5.57;;;2.40;;
19543;SDS011;9917;51.256;7.152;2023-03-29T13:59:59;4.25;;;2.10;;
19543;SDS011;9917;51.256;7.152;2023-03-29T14:02:35;5.15;;;2.60;;
19543;SDS011;9917;51.256;7.152;2023-03-29T14:05:04;4.18;;;2.13;;
19543;SDS011;9917;51.256;7.152;2023-03-29T14:07:36;5.30;;;2.08;;
19543;SDS011;9917;51.256;7.152;2023-03-29T14:10:05;3.50;;;1.75;;
19543;SDS011;9917;51.256;7.152;2023-03-29T14:12:32;4.10;;;2.13;;
19543;SDS011;9917;51.256;7.152;2023-03-29T14:15:02;3.50;;;1.67;;
19543;SDS011;9917;51.256;7.152;2023-03-29T14:17:30;4.70;;;1.73;;
19543;SDS011;9917;51.256;7.152;2023-03-29T14:19:56;4.35;;;1.88;;
19543;SDS011;9917;51.256;7.152;2023-03-29T14:22:27;4.97;;;2.08;;
19543;SDS011;9917;51.256;7.152;2023-03-29T14:24:55;3.78;;;1.92;;
19543;SDS011;9917;51.256;7.152;2023-03-29T14:27:28;3.33;;;1.85;;
19543;SDS011;9917;51.256;7.152;2023-03-29T14:29:54;3.95;;;2.13;;
19543;SDS011;9917;51.256;7.152;2023-03-29T14:32:26;4.25;;;2.35;;
19543;SDS011;9917;51.256;7.152;2023-03-29T14:34:53;4.03;;;1.50;;
19543;SDS011;9917;51.256;7.152;2023-03-29T14:37:20;4.35;;;1.73;;
19543;SDS011;9917;51.256;7.152;2023-03-29T14:39:47;3.70;;;1.55;;
19543;SDS011;9917;51.256;7.152;2023-03-29T14:42:15;3.80;;;1.73;;
19543;SDS011;9917;51.256;7.152;2023-03-29T14:44:43;3.05;;;1.58;;
19543;SDS011;9917;51.256;7.152;2023-03-29T14:47:12;2.15;;;1.33;;
19543;SDS011;9917;51.256;7.152;2023-03-29T14:49:50;2.92;;;1.25;;
19543;SDS011;9917;51.256;7.152;2023-03-29T14:52:16;5.43;;;1.63;;
19543;SDS011;9917;51.256;7.152;2023-03-29T14:54:45;4.22;;;1.60;;
19543;SDS011;9917;51.256;7.152;2023-03-29T14:57:15;2.95;;;1.73;;
19543;SDS011;9917;51.256;7.152;2023-03-29T14:59:47;3.55;;;1.63;;
19543;SDS011;9917;51.256;7.152;2023-03-29T15:02:22;2.30;;;1.05;;
19543;SDS011;9917;51.256;7.152;2023-03-29T15:04:53;3.75;;;1.20;;
19543;SDS011;9917;51.256;7.152;2023-03-29T15:07:21;3.47;;;1.50;;
19543;SDS011;9917;51.256;7.152;2023-03-29T15:09:47;3.05;;;1.33;;
19543;SDS011;9917;51.256;7.152;2023-03-29T15:12:13;3.00;;;1.02;;
19543;SDS011;9917;51.256;7.152;2023-03-29T15:14:39;5.10;;;1.40;;
19543;SDS011;9917;51.256;7.152;2023-03-29T15:17:14;3.85;;;1.38;;
19543;SDS011;9917;51.256;7.152;2023-03-29T15:19:56;3.47;;;1.48;;
19543;SDS011;9917;51.256;7.152;2023-03-29T15:22:29;2.40;;;1.25;;
19543;SDS011;9917;51.256;7.152;2023-03-29T15:24:58;2.22;;;0.90;;
19543;SDS011;9917;51.256;7.152;2023-03-29T15:27:24;11.32;;;5.93;;
19543;SDS011;9917;51.256;7.152;2023-03-29T15:29:57;3.40;;;1.65;;
19543;SDS011;9917;51.256;7.152;2023-03-29T15:32:31;5.70;;;2.85;;
19543;SDS011;9917;51.256;7.152;2023-03-29T15:34:58;2.53;;;1.40;;
19543;SDS011;9917;51.256;7.152;2023-03-29T15:37:24;5.55;;;2.63;;
19543;SDS011;9917;51.256;7.152;2023-03-29T15:39:56;5.07;;;2.00;;
19543;SDS011;9917;51.256;7.152;2023-03-29T15:42:22;4.18;;;2.20;;
19543;SDS011;9917;51.256;7.152;2023-03-29T15:44:49;4.55;;;1.40;;
19543;SDS011;9917;51.256;7.152;2023-03-29T15:47:18;5.30;;;1.60;;
19543;SDS011;9917;51.256;7.152;2023-03-29T15:49:45;2.00;;;1.10;;
19543;SDS011;9917;51.256;7.152;2023-03-29T15:52:11;5.40;;;1.60;;
19543;SDS011;9917;51.256;7.152;2023-03-29T15:54:37;2.55;;;1.15;;
19543;SDS011;9917;51.256;7.152;2023-03-29T15:57:03;2.78;;;1.30;;
19543;SDS011;9917;51.256;7.152;2023-03-29T15:59:31;2.72;;;1.23;;
19543;SDS011;9917;51.256;7.152;2023-03-29T16:01:57;3.33;;;1.40;;
19543;SDS011;9917;51.256;7.152;2023-03-29T16:04:24;4.55;;;1.42;;
19543;SDS011;9917;51.256;7.152;2023-03-29T16:06:52;5.00;;;1.98;;
19543;SDS011;9917;51.256;7.152;2023-03-29T16:09:18;3.40;;;1.52;;
19543;SDS011;9917;51.256;7.152;2023-03-29T16:11:44;3.92;;;1.35;;
19543;SDS011;9917;51.256;7.152;2023-03-29T16:14:15;3.45;;;1.40;;
19543;SDS011;9917;51.256;7.152;2023-03-29T16:16:43;2.60;;;1.25;;
19543;SDS011;9917;51.256;7.152;2023-03-29T16:19:09;6.85;;;1.50;;
19543;SDS011;9917;51.256;7.152;2023-03-29T16:21:35;1.50;;;1.20;;
19543;SDS011;9917;51.256;7.152;2023-03-29T16:24:02;3.47;;;1.63;;
19543;SDS011;9917;51.256;7.152;2023-03-29T16:26:28;3.05;;;1.50;;
19543;SDS011;9917;51.256;7.152;2023-03-29T16:28:54;5.43;;;1.35;;
19543;SDS011;9917;51.256;7.152;2023-03-29T16:31:20;2.03;;;1.40;;
19543;SDS011;9917;51.256;7.152;2023-03-29T16:33:45;4.50;;;2.40;;